Informes METAR cercanos


LEVC - Manises, Valencia, ESPAÑA
Distance from station: NNE 72km
Actualización: 24/05/2018 03:30
Despejado
Despejado
 Viento del NO
Viento: NO 6 km/h
Temperatura: 19°C
Rocío: 12°C
Humedad: 64%
Barómetro: 1018 hPa
Resumen: Despejado
Visibility: Mas de 10 km
2018/05/24 01:30 LEVC 240130Z 32003KT 290V350 CAVOK 19/12 Q1018 NOSIG
LEAL - El Altet, Alicante, ESPAÑA
Distance from station: S 70km
Actualización: 24/05/2018 03:30
Algunas nubes
Algunas nubes
 Viento del varies
Viento: varies 2 km/h
Temperatura: 20°C
Rocío: 7°C
Humedad: 43%
Barómetro: 1017 hPa
Clouds: Algunas nubes
Visibility: 10 km
Cloud details: Algunas nubes 1829 m
2018/05/24 01:30 LEAL 240130Z VRB01KT 9999 FEW060 20/07 Q1017 NOSIG
 
LELC - San Javier, Murcia, ESPAÑA
Distance from station: SSO 188km
Actualización: 23/05/2018 23:00
NOT Current
Despejado
Despejado
 Viento del NE
Viento: NE 20 km/h
Temperatura: 20°C
Rocío: 16°C
Humedad: 78%
Barómetro: 1016 hPa
Resumen: Despejado
Visibility: Mas de 10 km
2018/05/23 21:00 LELC 232100Z 04011KT 010V070 CAVOK 20/16 Q1016 NOSIG
LEAB - Los Llanos, Albacete, ESPAÑA
Distance from station: O 143km
Actualización: 24/05/2018 03:00
Despejado
Despejado
 Viento del ESE
Viento: ESE 7 km/h
Temperatura: 13°C
Rocío: 6°C
Humedad: 63%
Barómetro: 1018 hPa
Resumen: Despejado
Visibility: Mas de 10 km
2018/05/24 01:00 LEAB 240100Z 11004KT CAVOK 13/06 Q1018 NOSIG